sensor_id;sensor_type;location;lat;lon;timestamp;P1;durP1;ratioP1;P2;durP2;ratioP2
39918;SDS011;25589;51.552;13.424;2023-04-15T00:01:18;3.10;;;2.42;;
39918;SDS011;25589;51.552;13.424;2023-04-15T00:03:44;2.72;;;2.53;;
39918;SDS011;25589;51.552;13.424;2023-04-15T00:06:10;5.53;;;2.65;;
39918;SDS011;25589;51.552;13.424;2023-04-15T00:08:36;3.25;;;2.50;;
39918;SDS011;25589;51.552;13.424;2023-04-15T00:11:02;2.30;;;2.10;;
39918;SDS011;25589;51.552;13.424;2023-04-15T00:13:30;2.88;;;2.58;;
39918;SDS011;25589;51.552;13.424;2023-04-15T00:15:56;2.58;;;2.38;;
39918;SDS011;25589;51.552;13.424;2023-04-15T00:18:22;3.00;;;2.70;;
39918;SDS011;25589;51.552;13.424;2023-04-15T00:20:48;3.05;;;2.70;;
39918;SDS011;25589;51.552;13.424;2023-04-15T00:23:14;3.25;;;2.55;;
39918;SDS011;25589;51.552;13.424;2023-04-15T00:25:39;2.85;;;2.35;;
39918;SDS011;25589;51.552;13.424;2023-04-15T00:28:06;2.60;;;2.40;;
39918;SDS011;25589;51.552;13.424;2023-04-15T00:30:32;2.97;;;2.67;;
39918;SDS011;25589;51.552;13.424;2023-04-15T00:32:58;3.47;;;3.03;;
39918;SDS011;25589;51.552;13.424;2023-04-15T00:35:26;3.90;;;2.80;;
39918;SDS011;25589;51.552;13.424;2023-04-15T00:37:51;3.75;;;3.08;;
39918;SDS011;25589;51.552;13.424;2023-04-15T00:40:18;3.10;;;2.80;;
39918;SDS011;25589;51.552;13.424;2023-04-15T00:42:45;2.63;;;2.42;;
39918;SDS011;25589;51.552;13.424;2023-04-15T00:45:11;2.97;;;2.67;;
39918;SDS011;25589;51.552;13.424;2023-04-15T00:47:38;2.97;;;2.67;;
39918;SDS011;25589;51.552;13.424;2023-04-15T00:50:07;2.88;;;2.65;;
39918;SDS011;25589;51.552;13.424;2023-04-15T00:52:33;2.90;;;2.45;;
39918;SDS011;25589;51.552;13.424;2023-04-15T00:54:59;3.22;;;2.83;;
39918;SDS011;25589;51.552;13.424;2023-04-15T00:57:24;2.40;;;2.20;;
39918;SDS011;25589;51.552;13.424;2023-04-15T00:59:52;3.45;;;3.03;;
39918;SDS011;25589;51.552;13.424;2023-04-15T01:02:20;3.03;;;2.70;;
39918;SDS011;25589;51.552;13.424;2023-04-15T01:04:47;2.85;;;2.55;;
39918;SDS011;25589;51.552;13.424;2023-04-15T01:07:13;3.05;;;2.70;;
39918;SDS011;25589;51.552;13.424;2023-04-15T01:09:39;2.83;;;2.45;;
39918;SDS011;25589;51.552;13.424;2023-04-15T01:12:05;2.70;;;2.50;;
39918;SDS011;25589;51.552;13.424;2023-04-15T01:14:32;3.20;;;2.80;;
39918;SDS011;25589;51.552;13.424;2023-04-15T01:16:58;3.55;;;2.80;;
39918;SDS011;25589;51.552;13.424;2023-04-15T01:19:24;3.00;;;2.70;;
39918;SDS011;25589;51.552;13.424;2023-04-15T01:21:50;2.92;;;2.63;;
39918;SDS011;25589;51.552;13.424;2023-04-15T01:24:16;3.05;;;2.75;;
39918;SDS011;25589;51.552;13.424;2023-04-15T01:26:43;3.58;;;2.80;;
39918;SDS011;25589;51.552;13.424;2023-04-15T01:29:09;2.60;;;2.35;;
39918;SDS011;25589;51.552;13.424;2023-04-15T01:31:35;2.78;;;2.50;;
39918;SDS011;25589;51.552;13.424;2023-04-15T01:34:00;3.63;;;2.83;;
39918;SDS011;25589;51.552;13.424;2023-04-15T01:36:26;3.15;;;2.85;;
39918;SDS011;25589;51.552;13.424;2023-04-15T01:38:52;3.22;;;2.92;;
39918;SDS011;25589;51.552;13.424;2023-04-15T01:41:24;3.63;;;2.80;;
39918;SDS011;25589;51.552;13.424;2023-04-15T01:43:53;3.20;;;2.88;;
39918;SDS011;25589;51.552;13.424;2023-04-15T01:46:19;3.38;;;3.00;;
39918;SDS011;25589;51.552;13.424;2023-04-15T01:48:44;3.25;;;2.95;;
39918;SDS011;25589;51.552;13.424;2023-04-15T01:51:10;3.42;;;3.13;;
39918;SDS011;25589;51.552;13.424;2023-04-15T01:53:36;3.78;;;3.00;;
39918;SDS011;25589;51.552;13.424;2023-04-15T01:56:01;3.33;;;3.03;;
39918;SDS011;25589;51.552;13.424;2023-04-15T01:58:27;3.45;;;3.10;;
39918;SDS011;25589;51.552;13.424;2023-04-15T02:00:53;4.05;;;3.38;;
39918;SDS011;25589;51.552;13.424;2023-04-15T02:03:18;3.28;;;2.95;;
39918;SDS011;25589;51.552;13.424;2023-04-15T02:05:44;3.95;;;3.55;;
39918;SDS011;25589;51.552;13.424;2023-04-15T02:08:10;3.83;;;3.42;;
39918;SDS011;25589;51.552;13.424;2023-04-15T02:10:37;3.70;;;3.38;;
39918;SDS011;25589;51.552;13.424;2023-04-15T02:13:03;3.78;;;3.33;;
39918;SDS011;25589;51.552;13.424;2023-04-15T02:15:29;3.45;;;3.13;;
39918;SDS011;25589;51.552;13.424;2023-04-15T02:17:55;4.45;;;3.85;;
39918;SDS011;25589;51.552;13.424;2023-04-15T02:20:20;4.60;;;3.67;;
39918;SDS011;25589;51.552;13.424;2023-04-15T02:22:47;4.25;;;3.53;;
39918;SDS011;25589;51.552;13.424;2023-04-15T02:25:13;4.43;;;3.85;;
39918;SDS011;25589;51.552;13.424;2023-04-15T02:27:41;3.88;;;3.47;;
39918;SDS011;25589;51.552;13.424;2023-04-15T02:30:08;4.65;;;3.70;;
39918;SDS011;25589;51.552;13.424;2023-04-15T02:32:34;4.57;;;3.83;;
39918;SDS011;25589;51.552;13.424;2023-04-15T02:35:05;4.43;;;3.90;;
39918;SDS011;25589;51.552;13.424;2023-04-15T02:37:32;4.95;;;4.20;;
39918;SDS011;25589;51.552;13.424;2023-04-15T02:40:07;5.38;;;4.20;;
39918;SDS011;25589;51.552;13.424;2023-04-15T02:42:39;5.95;;;4.22;;
39918;SDS011;25589;51.552;13.424;2023-04-15T02:45:09;4.80;;;4.10;;
39918;SDS011;25589;51.552;13.424;2023-04-15T02:47:36;5.78;;;4.78;;
39918;SDS011;25589;51.552;13.424;2023-04-15T02:50:04;6.45;;;4.95;;
39918;SDS011;25589;51.552;13.424;2023-04-15T02:52:31;5.90;;;5.28;;
39918;SDS011;25589;51.552;13.424;2023-04-15T02:54:57;5.40;;;4.70;;
39918;SDS011;25589;51.552;13.424;2023-04-15T02:57:26;7.30;;;4.70;;
39918;SDS011;25589;51.552;13.424;2023-04-15T02:59:55;5.75;;;5.07;;
39918;SDS011;25589;51.552;13.424;2023-04-15T03:02:20;6.60;;;5.32;;
39918;SDS011;25589;51.552;13.424;2023-04-15T03:04:46;6.55;;;5.05;;
39918;SDS011;25589;51.552;13.424;2023-04-15T03:07:11;6.63;;;5.50;;
39918;SDS011;25589;51.552;13.424;2023-04-15T03:09:37;7.93;;;6.43;;
39918;SDS011;25589;51.552;13.424;2023-04-15T03:12:05;6.25;;;5.10;;
39918;SDS011;25589;51.552;13.424;2023-04-15T03:14:31;7.47;;;5.30;;
39918;SDS011;25589;51.552;13.424;2023-04-15T03:16:57;7.28;;;5.95;;
39918;SDS011;25589;51.552;13.424;2023-04-15T03:19:23;7.20;;;5.82;;
39918;SDS011;25589;51.552;13.424;2023-04-15T03:21:49;8.27;;;6.38;;
39918;SDS011;25589;51.552;13.424;2023-04-15T03:24:16;7.78;;;6.15;;
39918;SDS011;25589;51.552;13.424;2023-04-15T03:26:43;8.02;;;5.75;;
39918;SDS011;25589;51.552;13.424;2023-04-15T03:29:12;7.10;;;5.75;;
39918;SDS011;25589;51.552;13.424;2023-04-15T03:31:38;8.57;;;6.63;;
39918;SDS011;25589;51.552;13.424;2023-04-15T03:34:04;9.10;;;6.47;;
39918;SDS011;25589;51.552;13.424;2023-04-15T03:36:30;7.88;;;6.47;;
39918;SDS011;25589;51.552;13.424;2023-04-15T03:38:57;9.35;;;6.82;;
39918;SDS011;25589;51.552;13.424;2023-04-15T03:41:23;8.60;;;6.82;;
39918;SDS011;25589;51.552;13.424;2023-04-15T03:43:48;8.63;;;7.00;;
39918;SDS011;25589;51.552;13.424;2023-04-15T03:46:16;9.38;;;6.68;;
39918;SDS011;25589;51.552;13.424;2023-04-15T03:48:42;10.32;;;7.97;;
39918;SDS011;25589;51.552;13.424;2023-04-15T03:51:07;10.52;;;7.38;;
39918;SDS011;25589;51.552;13.424;2023-04-15T03:53:33;9.60;;;7.82;;
39918;SDS011;25589;51.552;13.424;2023-04-15T03:55:58;12.55;;;8.50;;
39918;SDS011;25589;51.552;13.424;2023-04-15T03:58:24;10.85;;;8.73;;
39918;SDS011;25589;51.552;13.424;2023-04-15T04:00:49;10.65;;;8.23;;
39918;SDS011;25589;51.552;13.424;2023-04-15T04:03:15;12.05;;;9.20;;
39918;SDS011;25589;51.552;13.424;2023-04-15T04:05:41;12.30;;;9.07;;
39918;SDS011;25589;51.552;13.424;2023-04-15T04:08:08;11.63;;;8.55;;
39918;SDS011;25589;51.552;13.424;2023-04-15T04:10:33;10.82;;;8.55;;
39918;SDS011;25589;51.552;13.424;2023-04-15T04:12:59;12.25;;;9.10;;
39918;SDS011;25589;51.552;13.424;2023-04-15T04:15:26;12.45;;;8.88;;
39918;SDS011;25589;51.552;13.424;2023-04-15T04:17:51;11.93;;;9.15;;
39918;SDS011;25589;51.552;13.424;2023-04-15T04:20:17;13.43;;;9.90;;
39918;SDS011;25589;51.552;13.424;2023-04-15T04:22:42;13.45;;;9.65;;
39918;SDS011;25589;51.552;13.424;2023-04-15T04:25:08;16.15;;;10.73;;
39918;SDS011;25589;51.552;13.424;2023-04-15T04:27:35;12.77;;;9.50;;
39918;SDS011;25589;51.552;13.424;2023-04-15T04:30:00;14.90;;;11.00;;
39918;SDS011;25589;51.552;13.424;2023-04-15T04:32:26;15.65;;;10.82;;
39918;SDS011;25589;51.552;13.424;2023-04-15T04:34:51;15.95;;;11.02;;
39918;SDS011;25589;51.552;13.424;2023-04-15T04:37:17;14.85;;;10.63;;
39918;SDS011;25589;51.552;13.424;2023-04-15T04:39:44;16.13;;;11.07;;
39918;SDS011;25589;51.552;13.424;2023-04-15T04:42:10;14.13;;;11.02;;
39918;SDS011;25589;51.552;13.424;2023-04-15T04:44:35;16.00;;;11.80;;
39918;SDS011;25589;51.552;13.424;2023-04-15T04:47:01;15.38;;;11.82;;
39918;SDS011;25589;51.552;13.424;2023-04-15T04:49:27;15.18;;;11.95;;
39918;SDS011;25589;51.552;13.424;2023-04-15T04:51:52;18.88;;;12.65;;
39918;SDS011;25589;51.552;13.424;2023-04-15T04:54:18;17.13;;;12.20;;
39918;SDS011;25589;51.552;13.424;2023-04-15T04:56:43;18.88;;;12.27;;
39918;SDS011;25589;51.552;13.424;2023-04-15T04:59:09;18.35;;;12.98;;
39918;SDS011;25589;51.552;13.424;2023-04-15T05:01:35;18.45;;;13.00;;
39918;SDS011;25589;51.552;13.424;2023-04-15T05:04:00;17.92;;;13.23;;
39918;SDS011;25589;51.552;13.424;2023-04-15T05:06:26;19.30;;;12.90;;
39918;SDS011;25589;51.552;13.424;2023-04-15T05:08:54;21.48;;;13.95;;
39918;SDS011;25589;51.552;13.424;2023-04-15T05:11:20;19.48;;;12.73;;
39918;SDS011;25589;51.552;13.424;2023-04-15T05:13:46;18.92;;;13.45;;
39918;SDS011;25589;51.552;13.424;2023-04-15T05:16:11;18.98;;;13.30;;
39918;SDS011;25589;51.552;13.424;2023-04-15T05:18:37;20.00;;;15.25;;
39918;SDS011;25589;51.552;13.424;2023-04-15T05:21:02;22.00;;;15.70;;
39918;SDS011;25589;51.552;13.424;2023-04-15T05:23:28;22.33;;;16.02;;
39918;SDS011;25589;51.552;13.424;2023-04-15T05:25:54;22.52;;;16.02;;
39918;SDS011;25589;51.552;13.424;2023-04-15T05:28:19;24.15;;;14.77;;
39918;SDS011;25589;51.552;13.424;2023-04-15T05:30:45;25.73;;;17.33;;
39918;SDS011;25589;51.552;13.424;2023-04-15T05:33:11;23.73;;;16.20;;
39918;SDS011;25589;51.552;13.424;2023-04-15T05:35:36;26.20;;;16.65;;
39918;SDS011;25589;51.552;13.424;2023-04-15T05:38:02;24.60;;;16.45;;
39918;SDS011;25589;51.552;13.424;2023-04-15T05:40:29;26.27;;;17.92;;
39918;SDS011;25589;51.552;13.424;2023-04-15T05:42:55;26.50;;;18.02;;
39918;SDS011;25589;51.552;13.424;2023-04-15T05:45:21;25.63;;;17.35;;
39918;SDS011;25589;51.552;13.424;2023-04-15T05:47:46;28.35;;;18.80;;
39918;SDS011;25589;51.552;13.424;2023-04-15T05:50:14;26.95;;;17.98;;
39918;SDS011;25589;51.552;13.424;2023-04-15T05:52:40;23.17;;;17.05;;
39918;SDS011;25589;51.552;13.424;2023-04-15T05:55:06;27.63;;;18.77;;
39918;SDS011;25589;51.552;13.424;2023-04-15T05:57:32;26.88;;;18.17;;
39918;SDS011;25589;51.552;13.424;2023-04-15T05:59:57;24.58;;;17.42;;
39918;SDS011;25589;51.552;13.424;2023-04-15T06:02:23;25.83;;;17.95;;
39918;SDS011;25589;51.552;13.424;2023-04-15T06:04:48;26.92;;;18.48;;
39918;SDS011;25589;51.552;13.424;2023-04-15T06:07:14;27.10;;;18.35;;
39918;SDS011;25589;51.552;13.424;2023-04-15T06:09:40;27.17;;;18.17;;
39918;SDS011;25589;51.552;13.424;2023-04-15T06:12:05;27.48;;;18.85;;
39918;SDS011;25589;51.552;13.424;2023-04-15T06:14:36;24.75;;;17.60;;
39918;SDS011;25589;51.552;13.424;2023-04-15T06:17:02;25.13;;;17.92;;
39918;SDS011;25589;51.552;13.424;2023-04-15T06:19:27;24.52;;;17.75;;
39918;SDS011;25589;51.552;13.424;2023-04-15T06:21:53;34.10;;;22.00;;
39918;SDS011;25589;51.552;13.424;2023-04-15T06:24:19;29.85;;;19.88;;
39918;SDS011;25589;51.552;13.424;2023-04-15T06:26:44;36.20;;;25.80;;
39918;SDS011;25589;51.552;13.424;2023-04-15T06:29:10;33.58;;;23.75;;
39918;SDS011;25589;51.552;13.424;2023-04-15T06:31:35;38.95;;;30.08;;
39918;SDS011;25589;51.552;13.424;2023-04-15T06:34:01;27.48;;;18.92;;
39918;SDS011;25589;51.552;13.424;2023-04-15T06:36:27;32.60;;;21.20;;
39918;SDS011;25589;51.552;13.424;2023-04-15T06:38:52;29.48;;;20.00;;
39918;SDS011;25589;51.552;13.424;2023-04-15T06:41:18;35.78;;;21.40;;
39918;SDS011;25589;51.552;13.424;2023-04-15T06:43:43;33.97;;;22.17;;
39918;SDS011;25589;51.552;13.424;2023-04-15T06:46:09;35.17;;;26.08;;
39918;SDS011;25589;51.552;13.424;2023-04-15T06:48:35;35.17;;;23.92;;
39918;SDS011;25589;51.552;13.424;2023-04-15T06:51:01;28.10;;;19.00;;
39918;SDS011;25589;51.552;13.424;2023-04-15T06:53:28;28.38;;;20.58;;
39918;SDS011;25589;51.552;13.424;2023-04-15T06:55:53;27.80;;;19.92;;
39918;SDS011;25589;51.552;13.424;2023-04-15T06:58:19;29.65;;;22.10;;
39918;SDS011;25589;51.552;13.424;2023-04-15T07:00:45;27.85;;;19.75;;
39918;SDS011;25589;51.552;13.424;2023-04-15T07:03:12;26.60;;;18.35;;
39918;SDS011;25589;51.552;13.424;2023-04-15T07:05:37;31.55;;;19.85;;
39918;SDS011;25589;51.552;13.424;2023-04-15T07:08:03;27.70;;;19.00;;
39918;SDS011;25589;51.552;13.424;2023-04-15T07:10:29;27.67;;;19.77;;
39918;SDS011;25589;51.552;13.424;2023-04-15T07:12:55;29.42;;;20.13;;
39918;SDS011;25589;51.552;13.424;2023-04-15T07:15:21;35.58;;;26.38;;
39918;SDS011;25589;51.552;13.424;2023-04-15T07:17:47;26.30;;;19.63;;
39918;SDS011;25589;51.552;13.424;2023-04-15T07:20:13;27.00;;;20.40;;
39918;SDS011;25589;51.552;13.424;2023-04-15T07:22:38;28.75;;;19.45;;
39918;SDS011;25589;51.552;13.424;2023-04-15T07:25:04;27.92;;;18.85;;
39918;SDS011;25589;51.552;13.424;2023-04-15T07:27:31;26.85;;;19.88;;
39918;SDS011;25589;51.552;13.424;2023-04-15T07:29:57;29.52;;;20.85;;
39918;SDS011;25589;51.552;13.424;2023-04-15T07:32:22;27.88;;;18.65;;
39918;SDS011;25589;51.552;13.424;2023-04-15T07:34:48;22.88;;;17.35;;
39918;SDS011;25589;51.552;13.424;2023-04-15T07:37:13;25.05;;;17.73;;
39918;SDS011;25589;51.552;13.424;2023-04-15T07:39:39;27.15;;;18.20;;
39918;SDS011;25589;51.552;13.424;2023-04-15T07:42:05;22.45;;;16.88;;
39918;SDS011;25589;51.552;13.424;2023-04-15T07:44:30;22.17;;;18.27;;
39918;SDS011;25589;51.552;13.424;2023-04-15T07:46:56;25.73;;;20.40;;
39918;SDS011;25589;51.552;13.424;2023-04-15T07:49:22;22.83;;;16.45;;
39918;SDS011;25589;51.552;13.424;2023-04-15T07:51:47;19.80;;;15.07;;
39918;SDS011;25589;51.552;13.424;2023-04-15T07:54:13;19.35;;;14.38;;
39918;SDS011;25589;51.552;13.424;2023-04-15T07:56:39;17.63;;;14.73;;
39918;SDS011;25589;51.552;13.424;2023-04-15T07:59:05;17.45;;;14.27;;
39918;SDS011;25589;51.552;13.424;2023-04-15T08:01:31;20.02;;;15.23;;
39918;SDS011;25589;51.552;13.424;2023-04-15T08:03:57;19.83;;;15.32;;
39918;SDS011;25589;51.552;13.424;2023-04-15T08:06:23;16.45;;;13.10;;
39918;SDS011;25589;51.552;13.424;2023-04-15T08:08:49;17.60;;;12.95;;
39918;SDS011;25589;51.552;13.424;2023-04-15T08:11:14;15.65;;;12.55;;
39918;SDS011;25589;51.552;13.424;2023-04-15T08:13:40;17.75;;;13.90;;
39918;SDS011;25589;51.552;13.424;2023-04-15T08:16:15;17.45;;;12.63;;
39918;SDS011;25589;51.552;13.424;2023-04-15T08:18:43;14.65;;;10.77;;
39918;SDS011;25589;51.552;13.424;2023-04-15T08:21:09;14.77;;;10.88;;
39918;SDS011;25589;51.552;13.424;2023-04-15T08:23:35;15.20;;;11.50;;
39918;SDS011;25589;51.552;13.424;2023-04-15T08:26:01;15.07;;;11.65;;
39918;SDS011;25589;51.552;13.424;2023-04-15T08:28:27;12.43;;;10.82;;
39918;SDS011;25589;51.552;13.424;2023-04-15T08:30:52;16.85;;;11.63;;
39918;SDS011;25589;51.552;13.424;2023-04-15T08:33:18;14.60;;;11.68;;
39918;SDS011;25589;51.552;13.424;2023-04-15T08:35:43;12.77;;;10.50;;
39918;SDS011;25589;51.552;13.424;2023-04-15T08:38:09;12.18;;;9.95;;
39918;SDS011;25589;51.552;13.424;2023-04-15T08:40:40;14.23;;;11.60;;
39918;SDS011;25589;51.552;13.424;2023-04-15T08:43:07;12.63;;;9.70;;
39918;SDS011;25589;51.552;13.424;2023-04-15T08:45:36;13.65;;;11.05;;
39918;SDS011;25589;51.552;13.424;2023-04-15T08:48:03;11.18;;;9.88;;
39918;SDS011;25589;51.552;13.424;2023-04-15T08:50:30;12.18;;;9.15;;
39918;SDS011;25589;51.552;13.424;2023-04-15T08:52:57;12.18;;;9.18;;
39918;SDS011;25589;51.552;13.424;2023-04-15T08:55:25;12.45;;;9.98;;
39918;SDS011;25589;51.552;13.424;2023-04-15T08:57:54;11.82;;;9.38;;
39918;SDS011;25589;51.552;13.424;2023-04-15T09:00:20;9.93;;;8.40;;
39918;SDS011;25589;51.552;13.424;2023-04-15T09:02:47;10.38;;;8.68;;
39918;SDS011;25589;51.552;13.424;2023-04-15T09:05:12;10.90;;;9.48;;
39918;SDS011;25589;51.552;13.424;2023-04-15T09:07:38;9.82;;;8.18;;
39918;SDS011;25589;51.552;13.424;2023-04-15T09:10:04;12.88;;;9.40;;
39918;SDS011;25589;51.552;13.424;2023-04-15T09:12:33;10.07;;;8.60;;
39918;SDS011;25589;51.552;13.424;2023-04-15T09:15:00;12.57;;;9.80;;
39918;SDS011;25589;51.552;13.424;2023-04-15T09:17:26;11.52;;;8.52;;
39918;SDS011;25589;51.552;13.424;2023-04-15T09:20:07;10.50;;;8.98;;
39918;SDS011;25589;51.552;13.424;2023-04-15T09:22:35;10.95;;;9.15;;
39918;SDS011;25589;51.552;13.424;2023-04-15T09:25:02;11.27;;;9.20;;
39918;SDS011;25589;51.552;13.424;2023-04-15T09:27:28;12.30;;;9.07;;
39918;SDS011;25589;51.552;13.424;2023-04-15T09:29:53;9.98;;;8.45;;
39918;SDS011;25589;51.552;13.424;2023-04-15T09:32:19;14.10;;;10.48;;
39918;SDS011;25589;51.552;13.424;2023-04-15T09:34:48;9.20;;;8.05;;
39918;SDS011;25589;51.552;13.424;2023-04-15T09:37:14;11.40;;;8.73;;
39918;SDS011;25589;51.552;13.424;2023-04-15T09:39:51;9.15;;;8.13;;
39918;SDS011;25589;51.552;13.424;2023-04-15T09:42:17;10.52;;;8.18;;
39918;SDS011;25589;51.552;13.424;2023-04-15T09:44:48;9.70;;;7.60;;
39918;SDS011;25589;51.552;13.424;2023-04-15T09:47:28;11.85;;;8.07;;
39918;SDS011;25589;51.552;13.424;2023-04-15T09:49:54;10.10;;;8.02;;
39918;SDS011;25589;51.552;13.424;2023-04-15T09:52:24;13.20;;;9.50;;
39918;SDS011;25589;51.552;13.424;2023-04-15T09:54:52;12.15;;;9.25;;
39918;SDS011;25589;51.552;13.424;2023-04-15T09:57:20;11.10;;;9.32;;
39918;SDS011;25589;51.552;13.424;2023-04-15T09:59:46;13.30;;;10.40;;
39918;SDS011;25589;51.552;13.424;2023-04-15T10:02:12;14.00;;;9.32;;
39918;SDS011;25589;51.552;13.424;2023-04-15T10:04:39;11.18;;;9.75;;
39918;SDS011;25589;51.552;13.424;2023-04-15T10:07:05;14.23;;;9.60;;
39918;SDS011;25589;51.552;13.424;2023-04-15T10:09:34;12.07;;;9.85;;
39918;SDS011;25589;51.552;13.424;2023-04-15T10:12:00;14.68;;;10.35;;
39918;SDS011;25589;51.552;13.424;2023-04-15T10:14:29;14.90;;;10.68;;
39918;SDS011;25589;51.552;13.424;2023-04-15T10:16:58;13.30;;;10.50;;
39918;SDS011;25589;51.552;13.424;2023-04-15T10:19:26;14.73;;;9.10;;
39918;SDS011;25589;51.552;13.424;2023-04-15T10:21:55;10.00;;;6.43;;
39918;SDS011;25589;51.552;13.424;2023-04-15T10:24:21;5.97;;;5.05;;
39918;SDS011;25589;51.552;13.424;2023-04-15T10:26:48;8.07;;;5.75;;
39918;SDS011;25589;51.552;13.424;2023-04-15T10:29:15;8.00;;;5.55;;
39918;SDS011;25589;51.552;13.424;2023-04-15T10:31:41;6.72;;;4.82;;
39918;SDS011;25589;51.552;13.424;2023-04-15T10:34:08;8.35;;;5.15;;
39918;SDS011;25589;51.552;13.424;2023-04-15T10:36:35;6.88;;;4.63;;
39918;SDS011;25589;51.552;13.424;2023-04-15T10:39:01;5.53;;;4.80;;
39918;SDS011;25589;51.552;13.424;2023-04-15T10:41:27;5.95;;;4.90;;
39918;SDS011;25589;51.552;13.424;2023-04-15T10:49:06;6.22;;;4.88;;
39918;SDS011;25589;51.552;13.424;2023-04-15T10:51:51;6.78;;;5.28;;
39918;SDS011;25589;51.552;13.424;2023-04-15T10:56:50;15.18;;;5.10;;
39918;SDS011;25589;51.552;13.424;2023-04-15T10:59:28;7.28;;;5.63;;
39918;SDS011;25589;51.552;13.424;2023-04-15T11:02:00;6.80;;;4.97;;
39918;SDS011;25589;51.552;13.424;2023-04-15T11:12:42;3.75;;;3.20;;
39918;SDS011;25589;51.552;13.424;2023-04-15T11:17:58;4.43;;;3.15;;
39918;SDS011;25589;51.552;13.424;2023-04-15T11:20:41;3.28;;;2.97;;
39918;SDS011;25589;51.552;13.424;2023-04-15T11:23:11;3.45;;;2.97;;
39918;SDS011;25589;51.552;13.424;2023-04-15T11:25:37;3.53;;;3.08;;
39918;SDS011;25589;51.552;13.424;2023-04-15T11:28:03;3.25;;;2.85;;
39918;SDS011;25589;51.552;13.424;2023-04-15T11:30:33;2.50;;;2.30;;
39918;SDS011;25589;51.552;13.424;2023-04-15T11:33:01;3.20;;;2.42;;
39918;SDS011;25589;51.552;13.424;2023-04-15T11:35:28;2.63;;;2.40;;
39918;SDS011;25589;51.552;13.424;2023-04-15T11:37:54;2.80;;;2.28;;
39918;SDS011;25589;51.552;13.424;2023-04-15T11:40:24;2.47;;;2.28;;
39918;SDS011;25589;51.552;13.424;2023-04-15T11:43:03;3.55;;;2.30;;
39918;SDS011;25589;51.552;13.424;2023-04-15T11:45:36;3.10;;;2.15;;
39918;SDS011;25589;51.552;13.424;2023-04-15T11:48:11;2.15;;;1.70;;
39918;SDS011;25589;51.552;13.424;2023-04-15T11:50:38;1.95;;;1.73;;
39918;SDS011;25589;51.552;13.424;2023-04-15T11:53:05;1.65;;;1.55;;
39918;SDS011;25589;51.552;13.424;2023-04-15T11:55:45;2.53;;;1.98;;
39918;SDS011;25589;51.552;13.424;2023-04-15T11:58:16;2.42;;;2.00;;
39918;SDS011;25589;51.552;13.424;2023-04-15T12:03:21;3.13;;;1.70;;
39918;SDS011;25589;51.552;13.424;2023-04-15T12:11:41;2.20;;;2.00;;
39918;SDS011;25589;51.552;13.424;2023-04-15T12:14:12;2.08;;;1.88;;
39918;SDS011;25589;51.552;13.424;2023-04-15T12:16:41;1.85;;;1.52;;
39918;SDS011;25589;51.552;13.424;2023-04-15T12:19:13;1.90;;;1.80;;
39918;SDS011;25589;51.552;13.424;2023-04-15T12:21:41;2.00;;;1.80;;
39918;SDS011;25589;51.552;13.424;2023-04-15T12:24:09;3.47;;;2.35;;
39918;SDS011;25589;51.552;13.424;2023-04-15T12:26:40;1.70;;;1.60;;
39918;SDS011;25589;51.552;13.424;2023-04-15T12:29:11;2.30;;;2.00;;
39918;SDS011;25589;51.552;13.424;2023-04-15T12:31:52;6.80;;;2.83;;
39918;SDS011;25589;51.552;13.424;2023-04-15T12:34:30;2.88;;;1.58;;
39918;SDS011;25589;51.552;13.424;2023-04-15T12:36:57;2.45;;;1.95;;
39918;SDS011;25589;51.552;13.424;2023-04-15T12:39:25;4.97;;;3.28;;
39918;SDS011;25589;51.552;13.424;2023-04-15T12:41:52;2.42;;;2.05;;
39918;SDS011;25589;51.552;13.424;2023-04-15T12:44:18;2.08;;;1.88;;
39918;SDS011;25589;51.552;13.424;2023-04-15T12:46:46;1.63;;;1.50;;
39918;SDS011;25589;51.552;13.424;2023-04-15T12:49:11;2.00;;;1.90;;
39918;SDS011;25589;51.552;13.424;2023-04-15T12:51:38;1.90;;;1.70;;
39918;SDS011;25589;51.552;13.424;2023-04-15T12:54:04;1.73;;;1.60;;
39918;SDS011;25589;51.552;13.424;2023-04-15T12:56:30;2.00;;;1.80;;
39918;SDS011;25589;51.552;13.424;2023-04-15T12:58:55;1.92;;;1.75;;
39918;SDS011;25589;51.552;13.424;2023-04-15T13:01:21;1.88;;;1.77;;
39918;SDS011;25589;51.552;13.424;2023-04-15T13:03:47;1.52;;;1.23;;
39918;SDS011;25589;51.552;13.424;2023-04-15T13:06:14;1.52;;;1.33;;
39918;SDS011;25589;51.552;13.424;2023-04-15T13:08:40;1.42;;;1.25;;
39918;SDS011;25589;51.552;13.424;2023-04-15T13:11:06;3.53;;;1.23;;
39918;SDS011;25589;51.552;13.424;2023-04-15T13:13:32;1.77;;;1.58;;
39918;SDS011;25589;51.552;13.424;2023-04-15T13:15:57;1.83;;;1.70;;
39918;SDS011;25589;51.552;13.424;2023-04-15T13:18:23;1.30;;;1.20;;
39918;SDS011;25589;51.552;13.424;2023-04-15T13:20:49;1.77;;;1.35;;
39918;SDS011;25589;51.552;13.424;2023-04-15T13:23:15;2.22;;;1.55;;
39918;SDS011;25589;51.552;13.424;2023-04-15T13:25:41;1.15;;;1.10;;
39918;SDS011;25589;51.552;13.424;2023-04-15T13:28:06;1.60;;;1.30;;
39918;SDS011;25589;51.552;13.424;2023-04-15T13:30:32;1.40;;;1.20;;
39918;SDS011;25589;51.552;13.424;2023-04-15T13:32:57;1.20;;;1.10;;
39918;SDS011;25589;51.552;13.424;2023-04-15T13:35:23;1.95;;;1.25;;
39918;SDS011;25589;51.552;13.424;2023-04-15T13:37:49;2.65;;;1.83;;
39918;SDS011;25589;51.552;13.424;2023-04-15T13:40:15;1.30;;;1.20;;
39918;SDS011;25589;51.552;13.424;2023-04-15T13:42:41;1.20;;;1.10;;
39918;SDS011;25589;51.552;13.424;2023-04-15T13:45:07;1.35;;;1.13;;
39918;SDS011;25589;51.552;13.424;2023-04-15T13:47:33;4.32;;;1.42;;
39918;SDS011;25589;51.552;13.424;2023-04-15T13:49:59;1.88;;;1.50;;
39918;SDS011;25589;51.552;13.424;2023-04-15T13:52:24;1.65;;;1.55;;
39918;SDS011;25589;51.552;13.424;2023-04-15T13:54:50;1.98;;;1.55;;
39918;SDS011;25589;51.552;13.424;2023-04-15T13:57:15;2.30;;;2.10;;
39918;SDS011;25589;51.552;13.424;2023-04-15T13:59:41;3.78;;;2.20;;
39918;SDS011;25589;51.552;13.424;2023-04-15T14:02:08;5.72;;;2.35;;
39918;SDS011;25589;51.552;13.424;2023-04-15T14:04:33;2.90;;;2.58;;
39918;SDS011;25589;51.552;13.424;2023-04-15T14:06:59;199.52;;;123.50;;
39918;SDS011;25589;51.552;13.424;2023-04-15T14:09:25;64.03;;;44.00;;
39918;SDS011;25589;51.552;13.424;2023-04-15T14:11:50;65.55;;;52.75;;
39918;SDS011;25589;51.552;13.424;2023-04-15T14:14:16;70.78;;;63.03;;
39918;SDS011;25589;51.552;13.424;2023-04-15T14:16:42;16.90;;;15.23;;
39918;SDS011;25589;51.552;13.424;2023-04-15T14:19:07;6.75;;;6.13;;
39918;SDS011;25589;51.552;13.424;2023-04-15T14:21:33;22.17;;;20.27;;
39918;SDS011;25589;51.552;13.424;2023-04-15T14:23:59;5.25;;;4.78;;
39918;SDS011;25589;51.552;13.424;2023-04-15T14:26:24;3.80;;;3.42;;
39918;SDS011;25589;51.552;13.424;2023-04-15T14:28:50;5.32;;;3.90;;
39918;SDS011;25589;51.552;13.424;2023-04-15T14:31:16;8.63;;;7.75;;
39918;SDS011;25589;51.552;13.424;2023-04-15T14:33:41;10.88;;;9.80;;
39918;SDS011;25589;51.552;13.424;2023-04-15T14:36:07;5.57;;;5.03;;
39918;SDS011;25589;51.552;13.424;2023-04-15T14:38:34;4.35;;;3.95;;
39918;SDS011;25589;51.552;13.424;2023-04-15T14:41:04;4.63;;;3.78;;
39918;SDS011;25589;51.552;13.424;2023-04-15T14:43:30;4.85;;;4.35;;
39918;SDS011;25589;51.552;13.424;2023-04-15T14:45:56;6.63;;;4.72;;
39918;SDS011;25589;51.552;13.424;2023-04-15T14:48:21;5.13;;;4.57;;